createdAt,value
2022-10-26T00:01:13.295Z,14.02
2022-10-26T00:03:41.421Z,13.58
2022-10-26T00:06:16.959Z,14.04
2022-10-26T00:08:47.088Z,13.67
2022-10-26T00:11:14.968Z,14.02
2022-10-26T00:13:42.459Z,14.03
2022-10-26T00:16:13.660Z,14.00
2022-10-26T00:18:40.580Z,13.50
2022-10-26T00:21:09.236Z,13.72
2022-10-26T00:23:36.149Z,13.76
2022-10-26T00:26:03.197Z,14.02
2022-10-26T00:28:30.253Z,13.80
2022-10-26T00:31:04.331Z,14.01
2022-10-26T00:33:31.458Z,13.76
2022-10-26T00:35:58.307Z,14.14
2022-10-26T00:38:24.986Z,13.97
2022-10-26T00:40:51.634Z,14.18
2022-10-26T00:43:21.196Z,14.19
2022-10-26T00:45:51.007Z,14.19
2022-10-26T00:48:28.057Z,14.06
2022-10-26T00:50:56.769Z,13.70
2022-10-26T00:53:23.481Z,13.43
2022-10-26T00:55:52.483Z,14.20
2022-10-26T00:58:21.536Z,13.84
2022-10-26T01:00:49.665Z,13.77
2022-10-26T01:03:17.406Z,13.86
2022-10-26T01:05:46.274Z,13.90
2022-10-26T01:08:14.149Z,14.05
2022-10-26T01:10:42.652Z,14.16
2022-10-26T01:13:10.527Z,13.69
2022-10-26T01:15:52.321Z,13.87
2022-10-26T01:18:28.447Z,14.18
2022-10-26T01:21:21.517Z,13.96
2022-10-26T01:24:03.931Z,14.19
2022-10-26T01:26:39.427Z,14.21
2022-10-26T01:29:40.664Z,13.82
2022-10-26T01:32:23.449Z,14.23
2022-10-26T01:35:00.962Z,14.09
2022-10-26T01:37:32.411Z,13.91
2022-10-26T01:40:06.203Z,14.24
2022-10-26T01:42:42.144Z,14.08
2022-10-26T01:45:11.411Z,14.22
2022-10-26T01:47:39.538Z,14.22
2022-10-26T01:50:08.250Z,14.24
2022-10-26T01:52:34.751Z,13.80
2022-10-26T01:55:07.125Z,14.25
2022-10-26T01:57:36.269Z,14.24
2022-10-26T02:00:07.759Z,14.27
2022-10-26T02:03:01.881Z,14.29
2022-10-26T02:05:51.484Z,14.30
2022-10-26T02:08:31.073Z,13.98
2022-10-26T02:11:21.646Z,14.36
2022-10-26T02:13:58.662Z,14.32
2022-10-26T02:16:36.967Z,13.85
2022-10-26T02:19:26.323Z,14.06
2022-10-26T02:22:04.266Z,13.91
2022-10-26T02:24:33.430Z,13.87
2022-10-26T02:27:02.746Z,14.18
2022-10-26T02:29:31.007Z,14.40
2022-10-26T02:31:57.979Z,14.06
2022-10-26T02:34:31.495Z,14.40
2022-10-26T02:37:04.383Z,14.00
2022-10-26T02:39:34.503Z,14.21
2022-10-26T02:42:05.279Z,14.42
2022-10-26T02:44:39.759Z,14.03
2022-10-26T02:47:06.324Z,14.34
2022-10-26T02:49:32.823Z,14.13
2022-10-26T02:52:09.186Z,13.95
2022-10-26T02:54:59.303Z,14.48
2022-10-26T02:57:41.400Z,14.24
2022-10-26T03:02:37.145Z,14.21
2022-10-26T03:05:13.054Z,14.45
2022-10-26T03:07:42.046Z,14.29
2022-10-26T03:10:09.119Z,14.16
2022-10-26T03:12:35.623Z,14.05
2022-10-26T03:15:02.624Z,14.27
2022-10-26T03:17:29.239Z,14.11
2022-10-26T03:19:56.181Z,14.06
2022-10-26T03:22:24.364Z,14.03
2022-10-26T03:24:58.355Z,14.19
2022-10-26T03:27:25.040Z,14.49
2022-10-26T03:29:53.880Z,14.10
2022-10-26T03:32:20.450Z,14.16
2022-10-26T03:34:49.359Z,14.19
2022-10-26T03:37:15.924Z,13.96
2022-10-26T03:39:45.850Z,13.82
2022-10-26T03:42:12.387Z,13.83
2022-10-26T03:47:19.445Z,14.26
2022-10-26T03:49:46.110Z,14.30
2022-10-26T03:52:14.839Z,14.35
2022-10-26T03:54:41.401Z,14.32
2022-10-26T03:57:10.128Z,14.18
2022-10-26T03:59:38.905Z,14.25
2022-10-26T04:02:05.425Z,14.24
2022-10-26T04:04:34.999Z,14.39
2022-10-26T04:07:01.587Z,14.75
2022-10-26T04:09:30.753Z,14.52
2022-10-26T04:11:57.194Z,14.39
2022-10-26T04:14:25.009Z,14.37
2022-10-26T04:16:51.491Z,14.86
2022-10-26T04:19:19.067Z,14.51
2022-10-26T04:21:48.086Z,14.45
2022-10-26T04:24:17.331Z,14.32
2022-10-26T04:26:46.242Z,14.22
2022-10-26T04:29:13.702Z,14.44
2022-10-26T04:31:41.341Z,14.69
2022-10-26T04:34:10.985Z,14.91
2022-10-26T04:36:40.274Z,14.53
2022-10-26T04:39:06.779Z,14.24
2022-10-26T04:41:33.235Z,14.51
2022-10-26T04:43:59.834Z,14.49
2022-10-26T04:46:26.313Z,14.74
2022-10-26T04:48:55.593Z,14.55
2022-10-26T04:51:24.657Z,14.19
2022-10-26T04:53:54.326Z,14.72
2022-10-26T04:56:20.834Z,14.40
2022-10-26T04:58:50.333Z,14.66
2022-10-26T05:01:16.786Z,15.06
2022-10-26T05:03:50.632Z,14.66
2022-10-26T05:06:17.300Z,14.69
2022-10-26T05:08:44.832Z,14.65
2022-10-26T05:11:11.378Z,15.15
2022-10-26T05:13:37.896Z,14.68
2022-10-26T05:16:04.663Z,15.01
2022-10-26T05:18:31.292Z,14.64
2022-10-26T05:20:57.864Z,14.95
2022-10-26T05:23:24.470Z,14.82
2022-10-26T05:25:51.171Z,15.12
2022-10-26T05:28:18.828Z,15.23
2022-10-26T05:30:47.379Z,15.12
2022-10-26T05:33:16.461Z,14.54
2022-10-26T05:35:42.975Z,14.77
2022-10-26T05:38:14.486Z,14.88
2022-10-26T05:40:52.144Z,15.13
2022-10-26T05:43:23.254Z,14.90
2022-10-26T05:45:50.991Z,14.71
2022-10-26T05:48:24.040Z,14.88
2022-10-26T05:50:50.749Z,14.68
2022-10-26T05:53:17.416Z,14.93
2022-10-26T05:55:44.844Z,15.07
2022-10-26T05:58:13.342Z,15.33
2022-10-26T06:01:01.636Z,15.27
2022-10-26T06:04:04.731Z,15.36
2022-10-26T06:06:43.999Z,14.99
2022-10-26T06:09:14.970Z,14.94
2022-10-26T06:11:41.856Z,15.27
2022-10-26T06:14:09.884Z,15.39
2022-10-26T06:17:08.819Z,15.40
2022-10-26T06:19:51.886Z,14.90
2022-10-26T06:22:49.851Z,15.39
2022-10-26T06:25:25.896Z,15.37
2022-10-26T06:28:04.486Z,14.86
2022-10-26T06:30:33.595Z,15.34
2022-10-26T06:33:06.722Z,14.98
2022-10-26T06:36:10.623Z,15.04
2022-10-26T06:38:41.364Z,14.90
2022-10-26T06:41:08.267Z,14.82
2022-10-26T06:43:41.988Z,14.67
2022-10-26T06:46:23.678Z,15.31
2022-10-26T06:49:04.712Z,15.29
2022-10-26T06:51:39.218Z,14.64
2022-10-26T06:54:40.150Z,14.48
2022-10-26T06:57:32.501Z,15.20
2022-10-26T07:00:06.612Z,14.82
2022-10-26T07:02:33.281Z,14.82
2022-10-26T07:04:59.818Z,14.72
2022-10-26T07:07:30.986Z,14.92
2022-10-26T07:09:57.594Z,14.89
2022-10-26T07:12:24.079Z,14.69
2022-10-26T07:14:50.635Z,14.65
2022-10-26T07:17:17.430Z,15.07
2022-10-26T07:19:44.842Z,14.73
2022-10-26T07:22:12.175Z,14.86
2022-10-26T07:24:39.910Z,14.77
2022-10-26T07:27:09.187Z,14.87
2022-10-26T07:29:35.797Z,14.69
2022-10-26T07:32:02.966Z,15.29
2022-10-26T07:34:31.716Z,15.31
2022-10-26T07:37:00.053Z,14.89
2022-10-26T07:39:27.036Z,14.90
2022-10-26T07:41:53.956Z,15.15
2022-10-26T07:44:20.533Z,15.00
2022-10-26T07:46:50.079Z,14.81
2022-10-26T07:49:19.327Z,15.44
2022-10-26T07:51:48.584Z,15.43
2022-10-26T07:54:15.173Z,15.40
2022-10-26T07:56:42.062Z,14.91
2022-10-26T07:59:13.121Z,15.36
2022-10-26T08:01:39.733Z,14.93
2022-10-26T08:04:06.172Z,15.03
2022-10-26T08:06:32.614Z,14.97
2022-10-26T08:09:01.324Z,15.28
2022-10-26T08:11:27.762Z,15.38
2022-10-26T08:13:55.250Z,15.33
2022-10-26T08:16:22.550Z,15.07
2022-10-26T08:18:49.757Z,14.99
2022-10-26T08:21:21.605Z,14.98
2022-10-26T08:23:55.933Z,15.23
2022-10-26T08:26:25.422Z,15.37
2022-10-26T08:28:54.191Z,15.15
2022-10-26T08:31:21.102Z,15.81
2022-10-26T08:33:48.691Z,15.34
2022-10-26T08:36:22.769Z,15.47
2022-10-26T08:38:49.345Z,15.52
2022-10-26T08:41:16.242Z,15.72
2022-10-26T08:43:52.114Z,16.10
2022-10-26T08:46:30.454Z,16.17
2022-10-26T08:49:08.740Z,16.34
2022-10-26T08:51:39.785Z,16.12
2022-10-26T08:54:14.756Z,16.52
2022-10-26T08:56:47.282Z,16.37
2022-10-26T08:59:34.438Z,16.59
2022-10-26T09:02:02.660Z,16.66
2022-10-26T09:04:31.560Z,16.66
2022-10-26T09:07:19.732Z,16.87
2022-10-26T09:10:15.459Z,16.86
2022-10-26T09:12:53.432Z,16.81
2022-10-26T09:15:33.290Z,16.82
2022-10-26T09:18:15.008Z,16.86
2022-10-26T09:21:20.502Z,16.88
2022-10-26T09:24:19.210Z,16.84
2022-10-26T09:26:59.453Z,16.76
2022-10-26T09:29:31.928Z,16.28
2022-10-26T09:32:01.318Z,16.56
2022-10-26T09:34:34.078Z,16.16
2022-10-26T09:37:01.153Z,16.17
2022-10-26T09:39:45.349Z,16.59
2022-10-26T09:42:22.352Z,16.46
2022-10-26T09:45:01.262Z,16.59
2022-10-26T09:47:37.980Z,16.53
2022-10-26T09:50:23.209Z,16.60
2022-10-26T09:53:15.867Z,16.81
2022-10-26T09:55:47.108Z,16.66
2022-10-26T09:58:20.788Z,16.26
2022-10-26T10:00:47.562Z,16.93
2022-10-26T10:03:20.236Z,16.78
2022-10-26T10:05:51.694Z,16.98
2022-10-26T10:08:28.884Z,17.02
2022-10-26T10:11:22.286Z,17.02
2022-10-26T10:13:48.915Z,16.42
2022-10-26T10:16:30.106Z,16.92
2022-10-26T10:19:00.840Z,16.88
2022-10-26T10:21:36.366Z,16.94
2022-10-26T10:24:03.000Z,16.79
2022-10-26T10:26:29.516Z,16.92
2022-10-26T10:29:01.146Z,16.94
2022-10-26T10:31:30.482Z,16.93
2022-10-26T10:33:57.026Z,16.96
2022-10-26T10:36:29.618Z,17.30
2022-10-26T10:39:00.185Z,17.18
2022-10-26T10:41:36.522Z,17.24
2022-10-26T10:44:18.652Z,16.92
2022-10-26T10:46:46.485Z,16.99
2022-10-26T10:49:27.663Z,17.21
2022-10-26T10:51:55.715Z,17.65
2022-10-26T10:54:33.827Z,17.29
2022-10-26T10:57:21.558Z,17.75
2022-10-26T10:59:56.835Z,17.76
2022-10-26T11:02:36.278Z,17.74
2022-10-26T11:05:02.765Z,17.78
2022-10-26T11:07:32.289Z,17.63
2022-10-26T11:10:02.110Z,18.07
2022-10-26T11:12:38.830Z,17.96
2022-10-26T11:15:14.271Z,18.22
2022-10-26T11:18:05.128Z,18.24
2022-10-26T11:20:36.574Z,18.31
2022-10-26T11:23:30.698Z,18.50
2022-10-26T11:26:04.624Z,19.03
2022-10-26T11:28:53.623Z,19.25
2022-10-26T11:31:32.339Z,18.90
2022-10-26T11:34:08.280Z,19.11
2022-10-26T11:36:37.538Z,18.83
2022-10-26T11:40:11.572Z,18.47
2022-10-26T11:42:46.332Z,18.43
2022-10-26T11:45:23.163Z,18.66
2022-10-26T11:48:00.186Z,18.55
2022-10-26T11:50:47.203Z,18.89
2022-10-26T11:53:19.757Z,18.90
2022-10-26T11:55:51.696Z,18.68
2022-10-26T11:58:28.345Z,18.62
2022-10-26T12:01:10.651Z,19.05
2022-10-26T12:03:45.430Z,18.94
2022-10-26T12:06:15.193Z,18.90
2022-10-26T12:09:15.960Z,19.09
2022-10-26T12:12:17.823Z,18.76
2022-10-26T12:15:06.019Z,19.20
2022-10-26T12:17:44.625Z,19.33
2022-10-26T12:20:49.766Z,19.28
2022-10-26T12:23:23.328Z,19.10
2022-10-26T12:26:28.686Z,19.44
2022-10-26T12:29:17.076Z,19.16
2022-10-26T12:31:44.041Z,19.15
2022-10-26T12:34:22.059Z,19.05
2022-10-26T12:37:10.893Z,19.04
2022-10-26T12:39:41.291Z,19.29
2022-10-26T12:42:29.805Z,19.61
2022-10-26T12:45:09.731Z,19.66
2022-10-26T12:47:36.346Z,19.73
2022-10-26T12:50:02.986Z,19.78
2022-10-26T12:52:51.631Z,19.74
2022-10-26T12:55:47.885Z,19.83
2022-10-26T12:58:51.947Z,19.80
2022-10-26T13:01:41.762Z,19.80
2022-10-26T13:04:28.229Z,19.64
2022-10-26T13:07:40.040Z,19.35
2022-10-26T13:10:12.388Z,19.78
2022-10-26T13:12:56.109Z,19.84
2022-10-26T13:15:30.281Z,19.69
2022-10-26T13:18:01.010Z,19.92
2022-10-26T13:20:32.951Z,19.27
2022-10-26T13:25:35.212Z,19.66
2022-10-26T13:28:28.638Z,19.80
2022-10-26T13:30:55.106Z,19.73
2022-10-26T13:33:25.823Z,19.97
2022-10-26T13:35:55.259Z,19.63
2022-10-26T13:38:24.160Z,19.84
2022-10-26T13:40:57.298Z,19.43
2022-10-26T13:43:25.658Z,19.55
2022-10-26T13:46:02.391Z,19.87
2022-10-26T13:48:37.552Z,19.64
2022-10-26T13:51:16.436Z,19.51
2022-10-26T13:53:56.009Z,19.63
2022-10-26T13:56:27.227Z,19.67
2022-10-26T13:59:09.650Z,19.70
2022-10-26T14:01:36.434Z,19.56
2022-10-26T14:04:26.600Z,19.41
2022-10-26T14:06:54.616Z,19.46
2022-10-26T14:09:22.391Z,19.68
2022-10-26T14:12:00.814Z,19.77
2022-10-26T14:14:34.953Z,19.82
2022-10-26T14:17:02.418Z,19.43
2022-10-26T14:19:32.649Z,19.29
2022-10-26T14:21:59.558Z,19.64
2022-10-26T14:24:47.009Z,19.11
2022-10-26T14:27:19.692Z,19.47
2022-10-26T14:30:22.222Z,19.13
2022-10-26T14:32:43.186Z,19.41
2022-10-26T14:35:16.279Z,18.92
2022-10-26T14:37:48.954Z,18.89
2022-10-26T14:40:18.762Z,19.25
2022-10-26T14:42:50.164Z,19.19
2022-10-26T14:45:47.171Z,19.24
2022-10-26T14:48:24.150Z,19.02
2022-10-26T14:51:09.874Z,18.95
2022-10-26T14:53:41.327Z,19.04
2022-10-26T14:56:23.447Z,18.82
2022-10-26T14:58:51.097Z,18.80
2022-10-26T15:01:23.656Z,18.81
2022-10-26T15:04:27.846Z,18.42
2022-10-26T15:07:02.530Z,18.59
2022-10-26T15:09:40.637Z,18.68
2022-10-26T15:12:37.451Z,18.59
2022-10-26T15:15:18.637Z,18.87
2022-10-26T15:18:06.252Z,18.54
2022-10-26T15:20:39.610Z,18.37
2022-10-26T15:23:06.231Z,18.22
2022-10-26T15:25:34.662Z,18.65
2022-10-26T15:28:30.729Z,18.59
2022-10-26T15:31:12.496Z,18.56
2022-10-26T15:33:41.867Z,18.30
2022-10-26T15:36:08.264Z,18.47
2022-10-26T15:38:35.461Z,18.36
2022-10-26T15:41:03.898Z,18.42
2022-10-26T15:43:30.487Z,18.40
2022-10-26T15:45:56.941Z,17.87
2022-10-26T15:48:29.025Z,18.40
2022-10-26T15:51:04.980Z,18.00
2022-10-26T15:53:31.454Z,17.88
2022-10-26T15:56:00.412Z,18.00
2022-10-26T15:58:29.440Z,17.91
2022-10-26T16:01:01.219Z,17.67
2022-10-26T16:03:30.550Z,17.37
2022-10-26T16:06:02.567Z,17.60
2022-10-26T16:08:31.345Z,17.69
2022-10-26T16:10:57.930Z,17.56
2022-10-26T16:13:24.473Z,17.51
2022-10-26T16:15:50.913Z,17.50
2022-10-26T16:18:17.389Z,17.45
2022-10-26T16:20:46.059Z,17.42
2022-10-26T16:23:12.717Z,17.65
2022-10-26T16:25:45.372Z,17.76
2022-10-26T16:28:14.254Z,17.48
2022-10-26T16:33:18.395Z,17.44
2022-10-26T16:35:47.221Z,17.63
2022-10-26T16:38:16.739Z,17.07
2022-10-26T16:40:45.007Z,17.60
2022-10-26T16:43:11.488Z,17.41
2022-10-26T16:45:41.683Z,17.27
2022-10-26T16:48:14.216Z,16.99
2022-10-26T16:50:40.825Z,17.27
2022-10-26T16:53:07.316Z,17.07
2022-10-26T16:55:33.919Z,17.08
2022-10-26T16:58:00.558Z,17.17
2022-10-26T17:00:27.010Z,17.23
2022-10-26T17:02:53.503Z,16.99
2022-10-26T17:05:19.953Z,17.00
2022-10-26T17:07:52.093Z,16.93
2022-10-26T17:10:18.864Z,17.05
2022-10-26T17:12:45.354Z,17.25
2022-10-26T17:15:13.779Z,16.67
2022-10-26T17:17:42.477Z,16.96
2022-10-26T17:20:09.430Z,16.85
2022-10-26T17:22:35.891Z,16.95
2022-10-26T17:25:02.281Z,17.28
2022-10-26T17:27:28.737Z,16.98
2022-10-26T17:29:55.212Z,17.04
2022-10-26T17:32:22.736Z,17.02
2022-10-26T17:34:49.504Z,16.97
2022-10-26T17:37:17.107Z,16.93
2022-10-26T17:39:44.772Z,16.85
2022-10-26T17:42:11.283Z,16.47
2022-10-26T17:44:39.021Z,16.73
2022-10-26T17:47:05.543Z,16.84
2022-10-26T17:49:36.257Z,16.74
2022-10-26T17:52:03.514Z,16.65
2022-10-26T17:54:29.962Z,16.58
2022-10-26T17:56:58.663Z,16.63
2022-10-26T17:59:25.264Z,16.54
2022-10-26T18:01:56.117Z,16.66
2022-10-26T18:04:23.926Z,16.37
2022-10-26T18:06:50.427Z,16.42
2022-10-26T18:09:19.497Z,16.45
2022-10-26T18:11:46.134Z,16.41
2022-10-26T18:14:15.010Z,16.48
2022-10-26T18:16:41.415Z,16.33
2022-10-26T18:19:10.278Z,16.06
2022-10-26T18:21:39.879Z,16.13
2022-10-26T18:24:07.664Z,16.36
2022-10-26T18:26:34.958Z,16.53
2022-10-26T18:29:03.472Z,16.26
2022-10-26T18:31:31.878Z,15.94
2022-10-26T18:34:00.396Z,16.47
2022-10-26T18:36:29.322Z,15.96
2022-10-26T18:38:55.942Z,16.08
2022-10-26T18:41:24.525Z,16.46
2022-10-26T18:44:02.214Z,16.04
2022-10-26T18:46:30.707Z,16.10
2022-10-26T18:48:58.831Z,16.05
2022-10-26T18:51:28.911Z,16.16
2022-10-26T18:53:56.534Z,15.90
2022-10-26T18:56:24.863Z,16.37
2022-10-26T18:58:53.799Z,16.00
2022-10-26T19:01:34.830Z,16.44
2022-10-26T19:04:04.695Z,16.23
2022-10-26T19:06:33.764Z,16.44
2022-10-26T19:09:00.735Z,16.10
2022-10-26T19:11:29.117Z,16.41
2022-10-26T19:13:56.270Z,16.12
2022-10-26T19:16:44.629Z,15.99
2022-10-26T19:19:12.303Z,16.35
2022-10-26T19:21:41.066Z,16.15
2022-10-26T19:24:13.415Z,16.07
2022-10-26T19:26:43.421Z,16.30
2022-10-26T19:29:15.514Z,15.96
2022-10-26T19:31:44.248Z,16.29
2022-10-26T19:34:11.805Z,16.26
2022-10-26T19:36:39.524Z,15.98
2022-10-26T19:39:06.809Z,15.95
2022-10-26T19:41:33.318Z,16.04
2022-10-26T19:46:32.651Z,15.47
2022-10-26T19:49:01.828Z,16.18
2022-10-26T19:51:30.040Z,16.18
2022-10-26T19:54:03.336Z,16.06
2022-10-26T19:56:35.429Z,15.73
2022-10-26T19:59:02.054Z,15.63
2022-10-26T20:01:28.726Z,16.03
2022-10-26T20:03:57.474Z,15.79
2022-10-26T20:06:24.336Z,15.64
2022-10-26T20:08:52.407Z,15.63
2022-10-26T20:11:19.069Z,16.01
2022-10-26T20:13:47.260Z,15.59
2022-10-26T20:16:15.662Z,15.65
2022-10-26T20:18:45.825Z,15.62
2022-10-26T20:21:22.215Z,15.46
2022-10-26T20:23:51.010Z,15.41
2022-10-26T20:26:19.587Z,15.56
2022-10-26T20:28:49.216Z,15.35
2022-10-26T20:31:15.811Z,15.07
2022-10-26T20:33:42.582Z,15.50
2022-10-26T20:36:09.224Z,15.35
2022-10-26T20:38:38.602Z,15.75
2022-10-26T20:41:07.927Z,15.13
2022-10-26T20:43:41.081Z,15.15
2022-10-26T20:46:17.132Z,15.56
2022-10-26T20:48:47.878Z,15.06
2022-10-26T20:51:47.596Z,15.54
2022-10-26T20:54:30.959Z,15.19
2022-10-26T20:57:02.087Z,15.04
2022-10-26T20:59:36.665Z,15.40
2022-10-26T21:02:04.297Z,15.13
2022-10-26T21:04:31.035Z,15.28
2022-10-26T21:06:57.581Z,15.07
2022-10-26T21:09:25.386Z,15.05
2022-10-26T21:11:55.916Z,14.83
2022-10-26T21:14:22.415Z,15.00
2022-10-26T21:16:49.227Z,14.89
2022-10-26T21:19:15.722Z,15.06
2022-10-26T21:21:42.407Z,14.59
2022-10-26T21:24:09.012Z,15.04
2022-10-26T21:26:35.587Z,15.02
2022-10-26T21:29:02.210Z,14.86
2022-10-26T21:31:28.915Z,14.91
2022-10-26T21:33:55.634Z,14.50
2022-10-26T21:36:24.855Z,15.15
2022-10-26T21:38:53.850Z,14.66
2022-10-26T21:41:21.524Z,15.14
2022-10-26T21:43:51.395Z,14.70
2022-10-26T21:46:24.730Z,14.77
2022-10-26T21:48:53.748Z,14.85
2022-10-26T21:51:23.268Z,14.92
2022-10-26T21:53:51.374Z,15.18
2022-10-26T21:56:20.133Z,15.13
2022-10-26T21:58:47.216Z,14.66
2022-10-26T22:01:21.813Z,14.53
2022-10-26T22:03:49.034Z,14.77
2022-10-26T22:06:17.558Z,15.20
2022-10-26T22:08:44.616Z,14.73
2022-10-26T22:11:16.012Z,15.12
2022-10-26T22:13:43.977Z,14.78
2022-10-26T22:16:14.087Z,15.06
2022-10-26T22:18:43.924Z,15.20
2022-10-26T22:21:11.161Z,14.98
2022-10-26T22:23:46.650Z,14.32
2022-10-26T22:26:15.984Z,14.94
2022-10-26T22:28:43.739Z,15.02
2022-10-26T22:31:16.176Z,15.09
2022-10-26T22:33:42.841Z,14.78
2022-10-26T22:36:15.315Z,14.62
2022-10-26T22:38:42.305Z,15.02
2022-10-26T22:41:10.225Z,14.72
2022-10-26T22:43:37.322Z,14.62
2022-10-26T22:46:06.886Z,14.60
2022-10-26T22:48:33.868Z,14.96
2022-10-26T22:51:14.386Z,14.67
2022-10-26T22:53:43.606Z,14.20
2022-10-26T22:56:11.844Z,14.42
2022-10-26T22:58:39.301Z,14.56
2022-10-26T23:01:08.605Z,14.86
2022-10-26T23:03:35.513Z,14.69
2022-10-26T23:06:02.523Z,14.40
2022-10-26T23:08:31.471Z,14.62
2022-10-26T23:11:00.013Z,14.45
2022-10-26T23:13:26.678Z,14.30
2022-10-26T23:15:53.449Z,14.56
2022-10-26T23:18:19.970Z,14.45
2022-10-26T23:20:50.919Z,14.92
2022-10-26T23:23:17.915Z,14.25
2022-10-26T23:25:45.413Z,14.37
2022-10-26T23:28:11.940Z,14.33
2022-10-26T23:30:38.423Z,14.17
2022-10-26T23:33:06.064Z,14.39
2022-10-26T23:35:32.728Z,14.39
2022-10-26T23:37:59.829Z,14.30
2022-10-26T23:40:27.378Z,14.22
2022-10-26T23:42:54.064Z,14.10
2022-10-26T23:45:21.019Z,14.38
2022-10-26T23:47:47.735Z,14.45
2022-10-26T23:50:14.663Z,14.43
2022-10-26T23:52:41.476Z,14.18
2022-10-26T23:55:10.455Z,13.89
2022-10-26T23:57:39.537Z,14.02
